sensor_id;sensor_type;location;lat;lon;timestamp;P1;durP1;ratioP1;P2;durP2;ratioP2
53801;SDS011;39709;53.334;6.534;2023-04-06T00:01:40;14.43;;;7.00;;
53801;SDS011;39709;53.334;6.534;2023-04-06T00:04:06;17.05;;;7.95;;
53801;SDS011;39709;53.334;6.534;2023-04-06T00:06:32;14.47;;;7.33;;
53801;SDS011;39709;53.334;6.534;2023-04-06T00:08:58;15.17;;;8.03;;
53801;SDS011;39709;53.334;6.534;2023-04-06T00:11:25;17.45;;;7.70;;
53801;SDS011;39709;53.334;6.534;2023-04-06T00:13:51;19.10;;;7.55;;
53801;SDS011;39709;53.334;6.534;2023-04-06T00:16:17;14.20;;;7.28;;
53801;SDS011;39709;53.334;6.534;2023-04-06T00:18:43;15.17;;;7.30;;
53801;SDS011;39709;53.334;6.534;2023-04-06T00:21:13;16.67;;;7.88;;
53801;SDS011;39709;53.334;6.534;2023-04-06T00:23:39;16.13;;;8.13;;
53801;SDS011;39709;53.334;6.534;2023-04-06T00:26:08;14.25;;;7.57;;
53801;SDS011;39709;53.334;6.534;2023-04-06T00:28:36;15.20;;;7.40;;
53801;SDS011;39709;53.334;6.534;2023-04-06T00:31:02;15.07;;;7.88;;
53801;SDS011;39709;53.334;6.534;2023-04-06T00:33:28;14.98;;;7.72;;
53801;SDS011;39709;53.334;6.534;2023-04-06T00:35:53;14.33;;;7.60;;
53801;SDS011;39709;53.334;6.534;2023-04-06T00:38:19;16.20;;;7.80;;
53801;SDS011;39709;53.334;6.534;2023-04-06T00:40:45;16.20;;;7.63;;
53801;SDS011;39709;53.334;6.534;2023-04-06T00:43:11;18.58;;;8.93;;
53801;SDS011;39709;53.334;6.534;2023-04-06T00:45:38;16.05;;;8.38;;
53801;SDS011;39709;53.334;6.534;2023-04-06T00:48:05;16.15;;;8.07;;
53801;SDS011;39709;53.334;6.534;2023-04-06T00:50:31;13.87;;;7.77;;
53801;SDS011;39709;53.334;6.534;2023-04-06T00:52:58;16.88;;;8.10;;
53801;SDS011;39709;53.334;6.534;2023-04-06T00:55:24;16.15;;;8.20;;
53801;SDS011;39709;53.334;6.534;2023-04-06T00:57:51;17.67;;;8.98;;
53801;SDS011;39709;53.334;6.534;2023-04-06T01:00:17;15.17;;;8.07;;
53801;SDS011;39709;53.334;6.534;2023-04-06T01:02:43;15.15;;;8.30;;
53801;SDS011;39709;53.334;6.534;2023-04-06T01:05:10;18.42;;;8.18;;
53801;SDS011;39709;53.334;6.534;2023-04-06T01:07:36;18.23;;;8.37;;
53801;SDS011;39709;53.334;6.534;2023-04-06T01:10:01;16.65;;;8.48;;
53801;SDS011;39709;53.334;6.534;2023-04-06T01:12:28;24.75;;;8.70;;
53801;SDS011;39709;53.334;6.534;2023-04-06T01:14:53;16.20;;;8.77;;
53801;SDS011;39709;53.334;6.534;2023-04-06T01:17:19;14.98;;;8.10;;
53801;SDS011;39709;53.334;6.534;2023-04-06T01:19:45;15.53;;;8.23;;
53801;SDS011;39709;53.334;6.534;2023-04-06T01:22:17;18.10;;;8.75;;
53801;SDS011;39709;53.334;6.534;2023-04-06T01:24:44;16.25;;;8.20;;
53801;SDS011;39709;53.334;6.534;2023-04-06T01:27:10;15.80;;;8.63;;
53801;SDS011;39709;53.334;6.534;2023-04-06T01:29:36;18.83;;;8.85;;
53801;SDS011;39709;53.334;6.534;2023-04-06T01:32:02;18.50;;;8.43;;
53801;SDS011;39709;53.334;6.534;2023-04-06T01:34:28;16.55;;;8.95;;
53801;SDS011;39709;53.334;6.534;2023-04-06T01:36:54;16.88;;;9.30;;
53801;SDS011;39709;53.334;6.534;2023-04-06T01:39:20;15.20;;;8.35;;
53801;SDS011;39709;53.334;6.534;2023-04-06T01:41:46;19.87;;;9.13;;
53801;SDS011;39709;53.334;6.534;2023-04-06T01:44:12;18.13;;;9.35;;
53801;SDS011;39709;53.334;6.534;2023-04-06T01:46:41;18.75;;;8.50;;
53801;SDS011;39709;53.334;6.534;2023-04-06T01:49:07;17.57;;;8.90;;
53801;SDS011;39709;53.334;6.534;2023-04-06T01:51:32;17.95;;;9.43;;
53801;SDS011;39709;53.334;6.534;2023-04-06T01:53:58;16.57;;;9.33;;
53801;SDS011;39709;53.334;6.534;2023-04-06T01:56:24;19.77;;;9.73;;
53801;SDS011;39709;53.334;6.534;2023-04-06T01:58:50;18.38;;;8.98;;
53801;SDS011;39709;53.334;6.534;2023-04-06T02:01:16;18.83;;;9.60;;
53801;SDS011;39709;53.334;6.534;2023-04-06T02:03:42;18.23;;;9.73;;
53801;SDS011;39709;53.334;6.534;2023-04-06T02:06:07;16.53;;;9.47;;
53801;SDS011;39709;53.334;6.534;2023-04-06T02:08:33;18.70;;;9.23;;
53801;SDS011;39709;53.334;6.534;2023-04-06T02:10:59;18.98;;;9.05;;
53801;SDS011;39709;53.334;6.534;2023-04-06T02:13:25;18.30;;;9.37;;
53801;SDS011;39709;53.334;6.534;2023-04-06T02:15:50;20.35;;;9.25;;
53801;SDS011;39709;53.334;6.534;2023-04-06T02:18:17;18.93;;;9.90;;
53801;SDS011;39709;53.334;6.534;2023-04-06T02:20:43;18.73;;;10.05;;
53801;SDS011;39709;53.334;6.534;2023-04-06T02:23:10;18.40;;;9.23;;
53801;SDS011;39709;53.334;6.534;2023-04-06T02:25:36;19.73;;;9.80;;
53801;SDS011;39709;53.334;6.534;2023-04-06T02:28:02;20.23;;;11.07;;
53801;SDS011;39709;53.334;6.534;2023-04-06T02:30:28;19.42;;;10.70;;
53801;SDS011;39709;53.334;6.534;2023-04-06T02:32:54;19.35;;;10.48;;
53801;SDS011;39709;53.334;6.534;2023-04-06T02:35:20;18.88;;;10.13;;
53801;SDS011;39709;53.334;6.534;2023-04-06T02:37:46;18.97;;;10.40;;
53801;SDS011;39709;53.334;6.534;2023-04-06T02:40:12;19.80;;;9.88;;
53801;SDS011;39709;53.334;6.534;2023-04-06T02:42:38;19.10;;;10.40;;
53801;SDS011;39709;53.334;6.534;2023-04-06T02:45:05;20.63;;;10.70;;
53801;SDS011;39709;53.334;6.534;2023-04-06T02:47:31;19.50;;;9.90;;
53801;SDS011;39709;53.334;6.534;2023-04-06T02:49:56;20.48;;;10.50;;
53801;SDS011;39709;53.334;6.534;2023-04-06T02:52:22;17.33;;;10.27;;
53801;SDS011;39709;53.334;6.534;2023-04-06T02:54:48;18.52;;;10.10;;
53801;SDS011;39709;53.334;6.534;2023-04-06T02:57:13;20.10;;;9.83;;
53801;SDS011;39709;53.334;6.534;2023-04-06T02:59:39;22.20;;;11.27;;
53801;SDS011;39709;53.334;6.534;2023-04-06T03:02:05;19.48;;;10.52;;
53801;SDS011;39709;53.334;6.534;2023-04-06T03:04:30;22.30;;;11.27;;
53801;SDS011;39709;53.334;6.534;2023-04-06T03:06:56;19.45;;;10.45;;
53801;SDS011;39709;53.334;6.534;2023-04-06T03:09:22;19.47;;;10.90;;
53801;SDS011;39709;53.334;6.534;2023-04-06T03:11:47;21.40;;;10.80;;
53801;SDS011;39709;53.334;6.534;2023-04-06T03:14:13;20.10;;;11.10;;
53801;SDS011;39709;53.334;6.534;2023-04-06T03:16:39;19.45;;;10.88;;
53801;SDS011;39709;53.334;6.534;2023-04-06T03:19:05;22.00;;;11.35;;
53801;SDS011;39709;53.334;6.534;2023-04-06T03:21:31;19.17;;;10.60;;
53801;SDS011;39709;53.334;6.534;2023-04-06T03:23:56;19.42;;;11.18;;
53801;SDS011;39709;53.334;6.534;2023-04-06T03:26:22;21.73;;;11.50;;
53801;SDS011;39709;53.334;6.534;2023-04-06T03:28:48;20.55;;;10.85;;
53801;SDS011;39709;53.334;6.534;2023-04-06T03:31:13;20.43;;;10.37;;
53801;SDS011;39709;53.334;6.534;2023-04-06T03:33:39;22.23;;;11.73;;
53801;SDS011;39709;53.334;6.534;2023-04-06T03:36:05;21.33;;;11.43;;
53801;SDS011;39709;53.334;6.534;2023-04-06T03:38:31;20.20;;;11.13;;
53801;SDS011;39709;53.334;6.534;2023-04-06T03:40:57;23.43;;;11.17;;
53801;SDS011;39709;53.334;6.534;2023-04-06T03:43:23;21.75;;;11.85;;
53801;SDS011;39709;53.334;6.534;2023-04-06T03:45:49;21.83;;;11.03;;
53801;SDS011;39709;53.334;6.534;2023-04-06T03:48:14;21.80;;;11.55;;
53801;SDS011;39709;53.334;6.534;2023-04-06T03:50:40;20.00;;;9.85;;
53801;SDS011;39709;53.334;6.534;2023-04-06T03:53:06;21.50;;;10.90;;
53801;SDS011;39709;53.334;6.534;2023-04-06T03:55:31;19.05;;;10.38;;
53801;SDS011;39709;53.334;6.534;2023-04-06T03:57:57;21.23;;;10.63;;
53801;SDS011;39709;53.334;6.534;2023-04-06T04:00:23;20.40;;;10.23;;
53801;SDS011;39709;53.334;6.534;2023-04-06T04:02:49;19.87;;;10.53;;
53801;SDS011;39709;53.334;6.534;2023-04-06T04:05:15;20.50;;;10.55;;
53801;SDS011;39709;53.334;6.534;2023-04-06T04:07:41;23.58;;;11.73;;
53801;SDS011;39709;53.334;6.534;2023-04-06T04:10:07;22.87;;;11.53;;
53801;SDS011;39709;53.334;6.534;2023-04-06T04:12:33;21.85;;;11.80;;
53801;SDS011;39709;53.334;6.534;2023-04-06T04:14:58;22.53;;;11.43;;
53801;SDS011;39709;53.334;6.534;2023-04-06T04:17:24;22.17;;;10.73;;
53801;SDS011;39709;53.334;6.534;2023-04-06T04:19:50;22.50;;;11.80;;
53801;SDS011;39709;53.334;6.534;2023-04-06T04:22:16;21.43;;;11.60;;
53801;SDS011;39709;53.334;6.534;2023-04-06T04:24:41;21.45;;;11.70;;
53801;SDS011;39709;53.334;6.534;2023-04-06T04:27:07;19.87;;;11.50;;
53801;SDS011;39709;53.334;6.534;2023-04-06T04:29:33;22.48;;;11.48;;
53801;SDS011;39709;53.334;6.534;2023-04-06T04:31:59;24.67;;;11.85;;
53801;SDS011;39709;53.334;6.534;2023-04-06T04:34:25;20.70;;;11.50;;
53801;SDS011;39709;53.334;6.534;2023-04-06T04:36:51;21.27;;;11.43;;
53801;SDS011;39709;53.334;6.534;2023-04-06T04:39:17;19.55;;;11.02;;
53801;SDS011;39709;53.334;6.534;2023-04-06T04:41:43;22.77;;;11.53;;
53801;SDS011;39709;53.334;6.534;2023-04-06T04:44:09;20.30;;;10.80;;
53801;SDS011;39709;53.334;6.534;2023-04-06T04:46:35;22.27;;;11.47;;
53801;SDS011;39709;53.334;6.534;2023-04-06T04:49:00;20.38;;;11.07;;
53801;SDS011;39709;53.334;6.534;2023-04-06T04:51:26;24.53;;;11.80;;
53801;SDS011;39709;53.334;6.534;2023-04-06T04:53:52;26.00;;;12.83;;
53801;SDS011;39709;53.334;6.534;2023-04-06T04:56:17;22.03;;;11.00;;
53801;SDS011;39709;53.334;6.534;2023-04-06T04:58:43;21.67;;;11.40;;
53801;SDS011;39709;53.334;6.534;2023-04-06T05:01:09;20.63;;;10.70;;
53801;SDS011;39709;53.334;6.534;2023-04-06T05:03:36;22.23;;;12.10;;
53801;SDS011;39709;53.334;6.534;2023-04-06T05:06:03;22.60;;;12.02;;
53801;SDS011;39709;53.334;6.534;2023-04-06T05:08:30;21.80;;;11.65;;
53801;SDS011;39709;53.334;6.534;2023-04-06T05:10:55;22.20;;;11.10;;
53801;SDS011;39709;53.334;6.534;2023-04-06T05:13:21;22.50;;;10.55;;
53801;SDS011;39709;53.334;6.534;2023-04-06T05:15:47;20.80;;;10.70;;
53801;SDS011;39709;53.334;6.534;2023-04-06T05:18:13;20.05;;;10.70;;
53801;SDS011;39709;53.334;6.534;2023-04-06T05:20:39;23.65;;;11.82;;
53801;SDS011;39709;53.334;6.534;2023-04-06T05:23:05;21.77;;;11.00;;
53801;SDS011;39709;53.334;6.534;2023-04-06T05:25:31;22.80;;;11.67;;
53801;SDS011;39709;53.334;6.534;2023-04-06T05:27:58;20.67;;;10.63;;
53801;SDS011;39709;53.334;6.534;2023-04-06T05:30:23;22.10;;;11.43;;
53801;SDS011;39709;53.334;6.534;2023-04-06T05:32:50;22.67;;;11.70;;
53801;SDS011;39709;53.334;6.534;2023-04-06T05:35:15;20.98;;;11.55;;
53801;SDS011;39709;53.334;6.534;2023-04-06T05:37:42;18.45;;;10.57;;
53801;SDS011;39709;53.334;6.534;2023-04-06T05:40:08;22.55;;;11.23;;
53801;SDS011;39709;53.334;6.534;2023-04-06T05:42:40;25.23;;;11.67;;
53801;SDS011;39709;53.334;6.534;2023-04-06T05:45:07;20.95;;;11.48;;
53801;SDS011;39709;53.334;6.534;2023-04-06T05:47:35;21.75;;;11.73;;
53801;SDS011;39709;53.334;6.534;2023-04-06T05:50:02;21.63;;;11.05;;
53801;SDS011;39709;53.334;6.534;2023-04-06T05:52:27;28.23;;;11.98;;
53801;SDS011;39709;53.334;6.534;2023-04-06T05:54:53;23.67;;;12.03;;
53801;SDS011;39709;53.334;6.534;2023-04-06T05:57:19;23.65;;;11.68;;
53801;SDS011;39709;53.334;6.534;2023-04-06T05:59:45;20.33;;;10.30;;
53801;SDS011;39709;53.334;6.534;2023-04-06T06:02:10;21.63;;;11.85;;
53801;SDS011;39709;53.334;6.534;2023-04-06T06:04:36;20.33;;;10.83;;
53801;SDS011;39709;53.334;6.534;2023-04-06T06:07:02;27.10;;;11.52;;
53801;SDS011;39709;53.334;6.534;2023-04-06T06:09:28;20.40;;;10.18;;
53801;SDS011;39709;53.334;6.534;2023-04-06T06:11:54;20.20;;;9.67;;
53801;SDS011;39709;53.334;6.534;2023-04-06T06:14:20;22.70;;;10.45;;
53801;SDS011;39709;53.334;6.534;2023-04-06T06:16:47;20.08;;;10.73;;
53801;SDS011;39709;53.334;6.534;2023-04-06T06:19:12;20.67;;;10.30;;
53801;SDS011;39709;53.334;6.534;2023-04-06T06:21:38;18.60;;;10.13;;
53801;SDS011;39709;53.334;6.534;2023-04-06T06:24:04;20.17;;;10.48;;
53801;SDS011;39709;53.334;6.534;2023-04-06T06:26:30;19.23;;;10.43;;
53801;SDS011;39709;53.334;6.534;2023-04-06T06:28:56;30.80;;;13.63;;
53801;SDS011;39709;53.334;6.534;2023-04-06T06:31:22;24.05;;;12.32;;
53801;SDS011;39709;53.334;6.534;2023-04-06T06:33:48;19.97;;;10.90;;
53801;SDS011;39709;53.334;6.534;2023-04-06T06:36:17;18.83;;;10.57;;
53801;SDS011;39709;53.334;6.534;2023-04-06T06:38:43;20.63;;;10.95;;
53801;SDS011;39709;53.334;6.534;2023-04-06T06:41:09;18.30;;;11.02;;
53801;SDS011;39709;53.334;6.534;2023-04-06T06:43:35;20.23;;;10.50;;
53801;SDS011;39709;53.334;6.534;2023-04-06T06:46:01;18.83;;;9.98;;
53801;SDS011;39709;53.334;6.534;2023-04-06T06:48:27;17.55;;;7.65;;
53801;SDS011;39709;53.334;6.534;2023-04-06T06:50:53;17.03;;;8.13;;
53801;SDS011;39709;53.334;6.534;2023-04-06T06:53:19;14.20;;;6.57;;
53801;SDS011;39709;53.334;6.534;2023-04-06T06:55:45;15.38;;;8.05;;
53801;SDS011;39709;53.334;6.534;2023-04-06T06:58:11;19.83;;;8.77;;
53801;SDS011;39709;53.334;6.534;2023-04-06T07:00:37;17.63;;;9.40;;
53801;SDS011;39709;53.334;6.534;2023-04-06T07:03:03;17.50;;;9.15;;
53801;SDS011;39709;53.334;6.534;2023-04-06T07:05:28;17.90;;;9.93;;
53801;SDS011;39709;53.334;6.534;2023-04-06T07:07:54;18.05;;;9.25;;
53801;SDS011;39709;53.334;6.534;2023-04-06T07:10:21;9.67;;;4.63;;
53801;SDS011;39709;53.334;6.534;2023-04-06T07:12:47;14.82;;;8.27;;
53801;SDS011;39709;53.334;6.534;2023-04-06T07:15:13;14.48;;;8.20;;
53801;SDS011;39709;53.334;6.534;2023-04-06T07:17:38;14.47;;;7.20;;
53801;SDS011;39709;53.334;6.534;2023-04-06T07:20:06;14.75;;;7.70;;
53801;SDS011;39709;53.334;6.534;2023-04-06T07:22:32;15.70;;;8.52;;
53801;SDS011;39709;53.334;6.534;2023-04-06T07:24:58;13.13;;;7.03;;
53801;SDS011;39709;53.334;6.534;2023-04-06T07:27:23;17.90;;;9.10;;
53801;SDS011;39709;53.334;6.534;2023-04-06T07:29:49;14.57;;;6.70;;
53801;SDS011;39709;53.334;6.534;2023-04-06T07:32:15;16.83;;;8.90;;
53801;SDS011;39709;53.334;6.534;2023-04-06T07:34:41;15.45;;;8.02;;
53801;SDS011;39709;53.334;6.534;2023-04-06T07:37:07;16.17;;;7.80;;
53801;SDS011;39709;53.334;6.534;2023-04-06T07:39:33;19.08;;;8.95;;
53801;SDS011;39709;53.334;6.534;2023-04-06T07:41:59;16.77;;;8.32;;
53801;SDS011;39709;53.334;6.534;2023-04-06T07:44:25;18.73;;;7.93;;
53801;SDS011;39709;53.334;6.534;2023-04-06T07:46:51;19.65;;;8.75;;
53801;SDS011;39709;53.334;6.534;2023-04-06T07:49:16;16.90;;;8.43;;
53801;SDS011;39709;53.334;6.534;2023-04-06T07:51:42;13.18;;;6.18;;
53801;SDS011;39709;53.334;6.534;2023-04-06T07:54:08;7.50;;;3.47;;
53801;SDS011;39709;53.334;6.534;2023-04-06T07:56:34;14.63;;;7.33;;
53801;SDS011;39709;53.334;6.534;2023-04-06T07:58:59;15.15;;;7.35;;
53801;SDS011;39709;53.334;6.534;2023-04-06T08:01:26;19.43;;;7.20;;
53801;SDS011;39709;53.334;6.534;2023-04-06T08:03:52;14.95;;;7.40;;
53801;SDS011;39709;53.334;6.534;2023-04-06T08:06:19;16.42;;;8.27;;
53801;SDS011;39709;53.334;6.534;2023-04-06T08:08:45;13.53;;;7.03;;
53801;SDS011;39709;53.334;6.534;2023-04-06T08:11:10;15.55;;;7.07;;
53801;SDS011;39709;53.334;6.534;2023-04-06T08:13:36;14.60;;;8.03;;
53801;SDS011;39709;53.334;6.534;2023-04-06T08:16:02;12.30;;;6.43;;
53801;SDS011;39709;53.334;6.534;2023-04-06T08:18:28;14.10;;;7.20;;
53801;SDS011;39709;53.334;6.534;2023-04-06T08:20:55;15.23;;;7.88;;
53801;SDS011;39709;53.334;6.534;2023-04-06T08:23:21;16.42;;;7.15;;
53801;SDS011;39709;53.334;6.534;2023-04-06T08:25:46;14.00;;;7.00;;
53801;SDS011;39709;53.334;6.534;2023-04-06T08:28:12;14.03;;;6.00;;
53801;SDS011;39709;53.334;6.534;2023-04-06T08:30:41;13.30;;;6.05;;
53801;SDS011;39709;53.334;6.534;2023-04-06T08:33:08;15.13;;;7.67;;
53801;SDS011;39709;53.334;6.534;2023-04-06T08:35:34;12.38;;;5.63;;
53801;SDS011;39709;53.334;6.534;2023-04-06T08:38:00;15.77;;;7.35;;
53801;SDS011;39709;53.334;6.534;2023-04-06T08:40:26;11.53;;;5.53;;
53801;SDS011;39709;53.334;6.534;2023-04-06T08:42:54;14.25;;;7.22;;
53801;SDS011;39709;53.334;6.534;2023-04-06T08:45:21;13.60;;;7.32;;
53801;SDS011;39709;53.334;6.534;2023-04-06T08:47:50;10.25;;;5.00;;
53801;SDS011;39709;53.334;6.534;2023-04-06T08:50:17;14.73;;;6.53;;
53801;SDS011;39709;53.334;6.534;2023-04-06T08:52:44;12.88;;;5.85;;
53801;SDS011;39709;53.334;6.534;2023-04-06T08:55:12;12.20;;;5.10;;
53801;SDS011;39709;53.334;6.534;2023-04-06T08:57:38;15.23;;;6.57;;
53801;SDS011;39709;53.334;6.534;2023-04-06T09:00:04;12.00;;;6.13;;
53801;SDS011;39709;53.334;6.534;2023-04-06T09:02:32;14.40;;;7.35;;
53801;SDS011;39709;53.334;6.534;2023-04-06T09:04:58;12.07;;;5.82;;
53801;SDS011;39709;53.334;6.534;2023-04-06T09:07:26;6.55;;;2.33;;
53801;SDS011;39709;53.334;6.534;2023-04-06T09:09:52;12.35;;;5.05;;
53801;SDS011;39709;53.334;6.534;2023-04-06T09:12:28;14.17;;;5.73;;
53801;SDS011;39709;53.334;6.534;2023-04-06T09:14:55;6.20;;;3.08;;
53801;SDS011;39709;53.334;6.534;2023-04-06T09:17:26;10.30;;;4.30;;
53801;SDS011;39709;53.334;6.534;2023-04-06T09:19:57;4.18;;;1.27;;
53801;SDS011;39709;53.334;6.534;2023-04-06T09:22:24;16.23;;;7.03;;
53801;SDS011;39709;53.334;6.534;2023-04-06T09:24:52;5.63;;;2.05;;
53801;SDS011;39709;53.334;6.534;2023-04-06T09:27:34;4.03;;;1.05;;
53801;SDS011;39709;53.334;6.534;2023-04-06T09:30:11;15.38;;;5.35;;
53801;SDS011;39709;53.334;6.534;2023-04-06T09:32:48;11.90;;;4.43;;
53801;SDS011;39709;53.334;6.534;2023-04-06T09:35:16;13.87;;;7.10;;
53801;SDS011;39709;53.334;6.534;2023-04-06T09:37:42;13.65;;;6.35;;
53801;SDS011;39709;53.334;6.534;2023-04-06T09:40:08;14.05;;;5.72;;
53801;SDS011;39709;53.334;6.534;2023-04-06T09:42:35;11.73;;;5.60;;
53801;SDS011;39709;53.334;6.534;2023-04-06T09:45:01;12.65;;;6.60;;
53801;SDS011;39709;53.334;6.534;2023-04-06T09:47:28;8.87;;;3.87;;
53801;SDS011;39709;53.334;6.534;2023-04-06T09:49:58;11.85;;;5.18;;
53801;SDS011;39709;53.334;6.534;2023-04-06T09:52:37;11.88;;;6.25;;
53801;SDS011;39709;53.334;6.534;2023-04-06T09:55:07;11.73;;;5.40;;
53801;SDS011;39709;53.334;6.534;2023-04-06T10:00:22;9.80;;;4.57;;
53801;SDS011;39709;53.334;6.534;2023-04-06T10:08:09;8.65;;;3.85;;
53801;SDS011;39709;53.334;6.534;2023-04-06T10:10:36;16.27;;;5.82;;
53801;SDS011;39709;53.334;6.534;2023-04-06T10:13:03;6.83;;;2.73;;
53801;SDS011;39709;53.334;6.534;2023-04-06T10:15:29;13.50;;;7.15;;
53801;SDS011;39709;53.334;6.534;2023-04-06T10:17:56;12.60;;;5.05;;
53801;SDS011;39709;53.334;6.534;2023-04-06T10:20:25;14.65;;;5.75;;
53801;SDS011;39709;53.334;6.534;2023-04-06T10:23:05;10.20;;;4.85;;
53801;SDS011;39709;53.334;6.534;2023-04-06T10:25:51;15.53;;;6.50;;
53801;SDS011;39709;53.334;6.534;2023-04-06T10:28:20;9.40;;;4.10;;
53801;SDS011;39709;53.334;6.534;2023-04-06T10:30:46;10.85;;;4.32;;
53801;SDS011;39709;53.334;6.534;2023-04-06T10:33:15;12.17;;;5.53;;
53801;SDS011;39709;53.334;6.534;2023-04-06T10:35:42;9.97;;;3.63;;
53801;SDS011;39709;53.334;6.534;2023-04-06T10:38:08;12.57;;;5.68;;
53801;SDS011;39709;53.334;6.534;2023-04-06T10:40:37;12.70;;;5.32;;
53801;SDS011;39709;53.334;6.534;2023-04-06T10:43:10;18.02;;;7.88;;
53801;SDS011;39709;53.334;6.534;2023-04-06T10:45:37;14.90;;;7.30;;
53801;SDS011;39709;53.334;6.534;2023-04-06T10:48:14;14.68;;;6.65;;
53801;SDS011;39709;53.334;6.534;2023-04-06T10:50:44;18.38;;;8.18;;
53801;SDS011;39709;53.334;6.534;2023-04-06T10:53:19;16.10;;;7.78;;
53801;SDS011;39709;53.334;6.534;2023-04-06T10:55:53;14.63;;;6.97;;
53801;SDS011;39709;53.334;6.534;2023-04-06T10:58:24;15.87;;;7.97;;
53801;SDS011;39709;53.334;6.534;2023-04-06T11:00:51;11.05;;;4.82;;
53801;SDS011;39709;53.334;6.534;2023-04-06T11:03:17;14.85;;;6.47;;
53801;SDS011;39709;53.334;6.534;2023-04-06T11:05:43;10.48;;;4.88;;
53801;SDS011;39709;53.334;6.534;2023-04-06T11:10:49;16.83;;;8.00;;
53801;SDS011;39709;53.334;6.534;2023-04-06T11:13:15;13.70;;;6.82;;
53801;SDS011;39709;53.334;6.534;2023-04-06T11:15:42;11.57;;;5.57;;
53801;SDS011;39709;53.334;6.534;2023-04-06T11:18:08;17.83;;;8.90;;
53801;SDS011;39709;53.334;6.534;2023-04-06T11:20:33;17.07;;;8.17;;
53801;SDS011;39709;53.334;6.534;2023-04-06T11:22:59;16.10;;;8.15;;
53801;SDS011;39709;53.334;6.534;2023-04-06T11:25:26;15.55;;;9.15;;
53801;SDS011;39709;53.334;6.534;2023-04-06T11:27:52;13.73;;;6.73;;
53801;SDS011;39709;53.334;6.534;2023-04-06T11:30:18;6.38;;;2.10;;
53801;SDS011;39709;53.334;6.534;2023-04-06T11:32:45;18.02;;;8.57;;
53801;SDS011;39709;53.334;6.534;2023-04-06T11:35:20;15.43;;;7.57;;
53801;SDS011;39709;53.334;6.534;2023-04-06T11:37:50;18.67;;;7.93;;
53801;SDS011;39709;53.334;6.534;2023-04-06T11:40:20;17.30;;;8.73;;
53801;SDS011;39709;53.334;6.534;2023-04-06T11:42:54;13.98;;;6.63;;
53801;SDS011;39709;53.334;6.534;2023-04-06T11:45:22;11.50;;;5.50;;
53801;SDS011;39709;53.334;6.534;2023-04-06T11:47:55;14.97;;;6.90;;
53801;SDS011;39709;53.334;6.534;2023-04-06T11:50:24;6.40;;;2.33;;
53801;SDS011;39709;53.334;6.534;2023-04-06T11:52:59;13.73;;;5.88;;
53801;SDS011;39709;53.334;6.534;2023-04-06T11:55:26;18.83;;;7.20;;
53801;SDS011;39709;53.334;6.534;2023-04-06T11:57:52;27.50;;;12.77;;
53801;SDS011;39709;53.334;6.534;2023-04-06T12:00:18;22.10;;;12.33;;
53801;SDS011;39709;53.334;6.534;2023-04-06T12:02:46;27.75;;;13.75;;
53801;SDS011;39709;53.334;6.534;2023-04-06T12:05:13;17.75;;;8.25;;
53801;SDS011;39709;53.334;6.534;2023-04-06T12:07:38;23.50;;;12.07;;
53801;SDS011;39709;53.334;6.534;2023-04-06T12:10:04;26.17;;;12.27;;
53801;SDS011;39709;53.334;6.534;2023-04-06T12:12:30;16.60;;;7.32;;
53801;SDS011;39709;53.334;6.534;2023-04-06T12:14:57;21.10;;;10.60;;
53801;SDS011;39709;53.334;6.534;2023-04-06T12:17:22;10.40;;;4.30;;
53801;SDS011;39709;53.334;6.534;2023-04-06T12:19:48;25.70;;;13.52;;
53801;SDS011;39709;53.334;6.534;2023-04-06T12:22:14;14.95;;;6.47;;
53801;SDS011;39709;53.334;6.534;2023-04-06T12:24:41;14.05;;;6.30;;
53801;SDS011;39709;53.334;6.534;2023-04-06T12:27:06;25.57;;;12.53;;
53801;SDS011;39709;53.334;6.534;2023-04-06T12:29:33;18.83;;;10.38;;
53801;SDS011;39709;53.334;6.534;2023-04-06T12:31:59;25.00;;;10.83;;
53801;SDS011;39709;53.334;6.534;2023-04-06T12:34:26;16.10;;;7.15;;
53801;SDS011;39709;53.334;6.534;2023-04-06T12:36:52;14.88;;;6.93;;
53801;SDS011;39709;53.334;6.534;2023-04-06T12:39:18;20.20;;;9.63;;
53801;SDS011;39709;53.334;6.534;2023-04-06T12:41:45;20.92;;;9.02;;
53801;SDS011;39709;53.334;6.534;2023-04-06T12:44:11;9.57;;;3.83;;
53801;SDS011;39709;53.334;6.534;2023-04-06T12:46:36;21.60;;;10.47;;
53801;SDS011;39709;53.334;6.534;2023-04-06T12:49:02;8.55;;;2.85;;
53801;SDS011;39709;53.334;6.534;2023-04-06T12:51:28;23.20;;;12.17;;
53801;SDS011;39709;53.334;6.534;2023-04-06T12:53:54;15.68;;;7.05;;
53801;SDS011;39709;53.334;6.534;2023-04-06T12:56:20;16.88;;;8.50;;
53801;SDS011;39709;53.334;6.534;2023-04-06T12:58:47;17.60;;;7.93;;
53801;SDS011;39709;53.334;6.534;2023-04-06T13:01:15;9.45;;;4.18;;
53801;SDS011;39709;53.334;6.534;2023-04-06T13:03:40;4.40;;;1.60;;
53801;SDS011;39709;53.334;6.534;2023-04-06T13:06:06;19.40;;;9.47;;
53801;SDS011;39709;53.334;6.534;2023-04-06T13:08:36;5.47;;;1.65;;
53801;SDS011;39709;53.334;6.534;2023-04-06T13:11:05;21.20;;;10.77;;
53801;SDS011;39709;53.334;6.534;2023-04-06T13:13:33;17.27;;;8.68;;
53801;SDS011;39709;53.334;6.534;2023-04-06T13:16:03;16.77;;;6.70;;
53801;SDS011;39709;53.334;6.534;2023-04-06T13:18:31;27.73;;;13.80;;
53801;SDS011;39709;53.334;6.534;2023-04-06T13:20:57;17.63;;;8.80;;
53801;SDS011;39709;53.334;6.534;2023-04-06T13:23:24;24.70;;;9.80;;
53801;SDS011;39709;53.334;6.534;2023-04-06T13:26:01;25.00;;;13.55;;
53801;SDS011;39709;53.334;6.534;2023-04-06T13:28:28;25.30;;;13.10;;
53801;SDS011;39709;53.334;6.534;2023-04-06T13:30:54;22.98;;;11.45;;
53801;SDS011;39709;53.334;6.534;2023-04-06T13:33:21;25.55;;;12.77;;
53801;SDS011;39709;53.334;6.534;2023-04-06T13:35:47;23.65;;;12.48;;
53801;SDS011;39709;53.334;6.534;2023-04-06T13:38:13;25.23;;;13.03;;
53801;SDS011;39709;53.334;6.534;2023-04-06T13:40:39;17.53;;;8.77;;
53801;SDS011;39709;53.334;6.534;2023-04-06T13:43:06;21.42;;;10.48;;
53801;SDS011;39709;53.334;6.534;2023-04-06T13:45:32;27.73;;;13.45;;
53801;SDS011;39709;53.334;6.534;2023-04-06T13:47:58;31.33;;;13.60;;
53801;SDS011;39709;53.334;6.534;2023-04-06T13:50:28;25.13;;;13.20;;
53801;SDS011;39709;53.334;6.534;2023-04-06T13:52:53;23.90;;;11.23;;
53801;SDS011;39709;53.334;6.534;2023-04-06T13:55:20;15.32;;;7.55;;
53801;SDS011;39709;53.334;6.534;2023-04-06T13:57:46;22.08;;;10.38;;
53801;SDS011;39709;53.334;6.534;2023-04-06T14:00:12;20.27;;;10.07;;
53801;SDS011;39709;53.334;6.534;2023-04-06T14:02:39;16.02;;;9.27;;
53801;SDS011;39709;53.334;6.534;2023-04-06T14:05:05;6.63;;;2.30;;
53801;SDS011;39709;53.334;6.534;2023-04-06T14:07:31;23.98;;;13.40;;
53801;SDS011;39709;53.334;6.534;2023-04-06T14:09:57;8.43;;;3.00;;
53801;SDS011;39709;53.334;6.534;2023-04-06T14:12:23;6.43;;;2.27;;
53801;SDS011;39709;53.334;6.534;2023-04-06T14:14:49;7.85;;;3.65;;
53801;SDS011;39709;53.334;6.534;2023-04-06T14:17:15;8.45;;;3.70;;
53801;SDS011;39709;53.334;6.534;2023-04-06T14:19:41;8.93;;;4.37;;
53801;SDS011;39709;53.334;6.534;2023-04-06T14:22:08;4.55;;;1.67;;
53801;SDS011;39709;53.334;6.534;2023-04-06T14:24:33;21.70;;;4.67;;
53801;SDS011;39709;53.334;6.534;2023-04-06T14:27:00;11.23;;;4.90;;
53801;SDS011;39709;53.334;6.534;2023-04-06T14:29:27;11.10;;;5.28;;
53801;SDS011;39709;53.334;6.534;2023-04-06T14:31:52;4.63;;;1.58;;
53801;SDS011;39709;53.334;6.534;2023-04-06T14:34:24;8.90;;;3.67;;
53801;SDS011;39709;53.334;6.534;2023-04-06T14:36:53;19.75;;;6.95;;
53801;SDS011;39709;53.334;6.534;2023-04-06T14:39:18;15.60;;;6.85;;